Time;durP1;ratioP1;P1;durP2;ratioP2;P2;SDS_P1;SDS_P2;PMS_P1;PMS_P2;Temp;Humidity;BMP_temperature;BMP_pressure;BME280_temperature;BME280_humidity;BME280_pressure;Samples;Min_cycle;Max_cycle;Signal;HPM_P1;HPM_P2
2024/03/21 00:00:40;;;;;;;2.72;2.53;;;;;;;4.59;74.00;100074.88;5072692;28;20058;-66
2024/03/21 00:03:08;;;;;;;2.28;1.85;;;;;;;4.57;74.31;100076.50;5072230;28;20033;-66
2024/03/21 00:05:35;;;;;;;2.28;1.65;;;;;;;4.49;74.10;100076.28;5056130;28;20040;-66
2024/03/21 00:08:05;;;;;;;1.65;1.55;;;;;;;4.47;74.21;100074.50;5071998;28;20098;-66
2024/03/21 00:10:31;;;;;;;2.65;2.45;;;;;;;4.44;74.18;100076.97;5073055;28;20105;-66
2024/03/21 00:12:59;;;;;;;2.97;2.72;;;;;;;4.41;74.53;100075.22;5072563;28;20048;-66
2024/03/21 00:15:26;;;;;;;1.00;1.00;;;;;;;4.34;74.28;100078.38;5072301;28;20037;-65
2024/03/21 00:17:53;;;;;;;9.85;2.65;;;;;;;4.21;74.46;100055.19;5072584;28;20491;-66
2024/03/21 00:20:20;;;;;;;2.55;1.98;;;;;;;4.19;74.38;100077.03;5072806;28;20036;-66
2024/03/21 00:22:48;;;;;;;5.80;1.88;;;;;;;4.07;74.60;100062.34;5055525;28;20521;-66
2024/03/21 00:25:17;;;;;;;1.40;1.30;;;;;;;4.04;74.51;100068.16;5072615;28;20074;-66
2024/03/21 00:27:45;;;;;;;0.98;0.95;;;;;;;4.10;75.34;100056.53;5072477;28;20041;-66
2024/03/21 00:30:13;;;;;;;1.27;1.00;;;;;;;4.16;74.54;100054.19;5072478;28;20048;-66
2024/03/21 00:32:41;;;;;;;2.60;2.38;;;;;;;4.11;74.96;100054.06;5072330;28;20045;-66
2024/03/21 00:35:08;;;;;;;2.08;1.90;;;;;;;4.11;74.65;100050.66;5055769;28;20040;-66
2024/03/21 00:37:36;;;;;;;13.40;6.22;;;;;;;4.11;74.70;100048.13;5055732;28;20055;-66
2024/03/21 00:40:03;;;;;;;2.78;1.60;;;;;;;4.07;74.98;100053.13;5055718;28;20445;-66
2024/03/21 00:42:32;;;;;;;1.60;1.50;;;;;;;4.12;75.07;100047.34;5055687;28;20041;-66
2024/03/21 00:44:58;;;;;;;0.75;0.75;;;;;;;4.17;75.43;100053.41;5072269;28;20440;-66
2024/03/21 00:47:27;;;;;;;1.45;1.35;;;;;;;4.14;74.76;100050.75;5072436;28;20048;-66
2024/03/21 00:49:54;;;;;;;7.05;3.17;;;;;;;4.10;75.12;100046.44;5072162;28;20079;-66
2024/03/21 00:52:22;;;;;;;0.60;0.60;;;;;;;3.90;75.02;100030.66;5072031;28;20037;-66
2024/03/21 00:54:49;;;;;;;2.22;2.08;;;;;;;3.85;74.96;100035.56;5071694;28;20052;-66
2024/03/21 00:57:17;;;;;;;3.30;2.72;;;;;;;3.84;75.13;100040.59;5072342;28;20059;-66
2024/03/21 00:59:47;;;;;;;3.90;3.55;;;;;;;3.77;75.20;100046.22;5038889;28;20048;-66
2024/03/21 01:02:15;;;;;;;3.60;2.28;;;;;;;3.77;75.55;100047.09;5071820;28;20051;-66
2024/03/21 01:04:44;;;;;;;2.08;1.98;;;;;;;3.79;75.18;100044.63;5072227;28;20095;-66
2024/03/21 01:07:13;;;;;;;1.50;0.98;;;;;;;3.72;75.14;100030.94;5072127;28;20048;-66
2024/03/21 01:09:40;;;;;;;16.85;1.90;;;;;;;3.66;75.60;100040.84;5071985;28;20044;-66
2024/03/21 01:12:07;;;;;;;1.95;1.83;;;;;;;3.55;74.87;100037.09;5071794;28;20041;-66
2024/03/21 01:14:34;;;;;;;3.05;2.55;;;;;;;3.51;74.97;100032.78;5072060;28;20044;-66
2024/03/21 01:17:04;;;;;;;1.73;1.63;;;;;;;3.51;75.46;100035.28;5072022;28;20045;-66
2024/03/21 01:19:31;;;;;;;0.80;0.80;;;;;;;3.53;75.44;100041.25;5074473;28;20053;-66
2024/03/21 01:21:58;;;;;;;6.13;2.35;;;;;;;3.27;75.72;99996.66;5075426;28;20048;-66
2024/03/21 01:24:25;;;;;;;1.65;1.35;;;;;;;3.51;75.98;100035.28;5075634;28;20051;-66
2024/03/21 01:26:53;;;;;;;2.53;2.33;;;;;;;3.49;75.70;100034.41;5075579;28;20498;-67
2024/03/21 01:29:19;;;;;;;2.75;2.50;;;;;;;3.46;76.04;100024.19;5058849;28;20043;-66
2024/03/21 01:31:47;;;;;;;2.45;2.25;;;;;;;3.43;76.09;100033.34;5075568;28;20040;-66
2024/03/21 01:34:15;;;;;;;3.33;3.10;;;;;;;3.38;76.38;100028.97;5075496;28;20112;-67
2024/03/21 01:36:47;;;;;;;2.17;2.03;;;;;;;3.34;75.84;100029.69;5075396;28;20043;-66
2024/03/21 01:39:15;;;;;;;7.03;2.25;;;;;;;3.28;76.57;100023.59;5092224;28;20052;-66
2024/03/21 01:41:43;;;;;;;3.40;3.10;;;;;;;3.26;76.47;100012.59;5075396;28;20045;-66
2024/03/21 01:44:15;;;;;;;1.33;1.25;;;;;;;3.10;76.72;99988.53;5058716;28;20050;-66
2024/03/21 01:46:44;;;;;;;3.05;2.75;;;;;;;3.30;77.01;100012.75;5075266;28;20040;-66
2024/03/21 01:49:10;;;;;;;5.43;2.13;;;;;;;3.32;76.51;100020.34;5074937;28;20044;-66
2024/03/21 01:51:41;;;;;;;2.38;2.22;;;;;;;3.29;77.11;100005.97;5075087;28;20483;-66
2024/03/21 01:54:10;;;;;;;2.67;2.45;;;;;;;3.36;77.36;100014.59;5075221;28;20483;-67
2024/03/21 01:56:38;;;;;;;3.47;2.78;;;;;;;3.34;77.25;99993.53;5074773;28;20057;-66
2024/03/21 01:59:05;;;;;;;0.98;0.98;;;;;;;3.47;76.87;100018.34;5075108;28;20395;-66
2024/03/21 02:01:34;;;;;;;2.10;1.33;;;;;;;3.52;76.95;100013.44;5074657;28;20044;-66
2024/03/21 02:04:03;;;;;;;0.95;0.95;;;;;;;3.50;76.60;100010.91;5075646;28;20032;-66
2024/03/21 02:06:34;;;;;;;1.65;1.55;;;;;;;3.46;76.36;100006.53;5074978;28;20482;-66
2024/03/21 02:09:03;;;;;;;3.38;2.88;;;;;;;3.41;76.47;100004.69;5074985;28;20059;-66
2024/03/21 02:11:32;;;;;;;1.85;1.75;;;;;;;3.37;76.79;100003.72;5091664;28;20048;-66
2024/03/21 02:13:59;;;;;;;1.48;1.38;;;;;;;3.35;76.19;100000.28;5075033;28;20071;-66
2024/03/21 02:16:27;;;;;;;10.82;2.13;;;;;;;3.35;76.04;100003.69;5057873;28;20482;-66
2024/03/21 02:18:54;;;;;;;1.38;1.27;;;;;;;3.22;76.70;99988.94;5074675;28;20033;-66
2024/03/21 02:24:08;;;;;;;2.20;2.05;;;;;;;3.28;76.57;99998.38;5057887;28;20052;-66
2024/03/21 02:26:35;;;;;;;1.33;1.23;;;;;;;3.33;76.08;99995.22;5074548;28;20041;-66
2024/03/21 02:29:04;;;;;;;1.85;1.33;;;;;;;3.33;76.00;99990.16;5074792;28;20040;-66
2024/03/21 02:31:31;;;;;;;2.08;1.88;;;;;;;3.33;75.77;99992.69;5073714;28;20049;-66
2024/03/21 02:33:59;;;;;;;1.88;1.73;;;;;;;3.33;76.25;99991.81;5057854;28;20033;-66
2024/03/21 02:36:25;;;;;;;1.60;1.50;;;;;;;3.29;76.11;99987.47;5074358;28;20086;-66
2024/03/21 02:38:53;;;;;;;0.52;0.52;;;;;;;3.32;76.25;99996.00;5057457;28;20131;-66
2024/03/21 02:41:23;;;;;;;1.55;1.45;;;;;;;3.33;75.95;99986.78;5074084;28;20090;-66
2024/03/21 02:43:52;;;;;;;1.70;1.60;;;;;;;3.34;75.45;99984.28;5074254;28;20506;-66
2024/03/21 02:46:19;;;;;;;1.65;1.55;;;;;;;3.34;75.89;99983.44;5074147;28;20037;-66
2024/03/21 02:48:47;;;;;;;1.75;1.65;;;;;;;3.33;74.95;99987.66;5073955;28;20090;-66
2024/03/21 02:51:13;;;;;;;1.77;1.25;;;;;;;3.36;75.14;99981.81;5057475;28;20032;-66
2024/03/21 02:53:42;;;;;;;1.83;1.73;;;;;;;3.36;75.67;99986.84;5057364;28;20037;-66
2024/03/21 02:56:08;;;;;;;4.25;2.38;;;;;;;3.31;75.07;99968.22;5057000;28;20055;-66
2024/03/21 02:58:37;;;;;;;1.38;1.27;;;;;;;3.32;74.75;99978.34;5073483;28;20392;-66
2024/03/21 03:01:04;;;;;;;0.93;0.65;;;;;;;3.37;74.69;99989.44;5056870;28;20047;-66
2024/03/21 03:03:32;;;;;;;3.28;1.27;;;;;;;3.30;75.07;99986.66;5073537;28;20135;-66
2024/03/21 03:05:58;;;;;;;1.70;1.60;;;;;;;3.21;75.07;99973.75;5090578;28;20040;-66
2024/03/21 03:08:26;;;;;;;1.05;1.02;;;;;;;3.31;75.20;99993.44;5073593;28;20495;-66
2024/03/21 03:10:53;;;;;;;1.45;1.35;;;;;;;3.26;74.75;99994.94;5073935;28;20086;-66
2024/03/21 03:13:21;;;;;;;1.33;1.23;;;;;;;3.18;75.15;99993.81;5073297;28;20517;-66
2024/03/21 03:15:49;;;;;;;1.25;1.15;;;;;;;3.13;74.49;99992.81;5073296;28;20033;-67
2024/03/21 03:18:17;;;;;;;1.35;1.25;;;;;;;3.15;75.22;99992.06;5073461;28;20037;-66
2024/03/21 03:20:43;;;;;;;4.00;2.00;;;;;;;3.19;75.57;99993.88;5073676;28;20445;-66
2024/03/21 03:23:11;;;;;;;0.85;0.77;;;;;;;3.18;75.55;99996.34;5073404;28;20083;-66
2024/03/21 03:25:40;;;;;;;0.63;0.63;;;;;;;3.17;75.10;100002.19;5073406;28;20090;-66
2024/03/21 03:28:07;;;;;;;1.65;1.55;;;;;;;3.15;75.31;100007.19;5056196;28;20056;-66
2024/03/21 03:30:35;;;;;;;1.33;1.10;;;;;;;3.19;74.81;100003.13;5073200;28;20048;-66
2024/03/21 03:35:33;;;;;;;1.30;1.23;;;;;;;3.19;74.89;100008.16;5072836;28;20055;-66
2024/03/21 03:35:53;;;;;;;0.65;0.65;;;;;;;3.14;75.16;100007.97;5073323;28;20044;-67
2024/03/21 03:38:21;;;;;;;0.63;0.63;;;;;;;3.08;75.59;100007.78;5056381;28;20105;-66
2024/03/21 03:40:49;;;;;;;1.00;0.98;;;;;;;3.09;74.83;100006.13;5072645;28;20398;-66
2024/03/21 03:43:17;;;;;;;1.38;1.27;;;;;;;3.13;74.72;100010.47;5056750;28;20513;-66
2024/03/21 03:45:45;;;;;;;1.13;1.05;;;;;;;3.13;75.16;100002.91;5073238;28;20089;-66
2024/03/21 03:48:15;;;;;;;2.92;2.15;;;;;;;3.09;74.54;100006.13;5072741;28;20041;-66
2024/03/21 03:50:42;;;;;;;1.52;1.42;;;;;;;3.04;75.07;100005.13;5056089;28;20037;-66
2024/03/21 03:53:09;;;;;;;1.42;1.33;;;;;;;2.96;74.37;100003.97;5072854;28;20487;-66
2024/03/21 03:55:37;;;;;;;2.30;1.02;;;;;;;2.87;75.25;100009.59;5039227;28;20048;-66
2024/03/21 03:58:04;;;;;;;2.10;1.90;;;;;;;2.81;75.19;100008.50;5072852;28;20106;-66
2024/03/21 04:00:31;;;;;;;0.65;0.65;;;;;;;2.63;74.69;99986.91;5072816;28;20045;-66
2024/03/21 04:02:58;;;;;;;1.80;1.67;;;;;;;2.57;75.04;99986.66;5072406;28;20045;-66
2024/03/21 04:05:27;;;;;;;0.40;0.40;;;;;;;2.57;75.29;99999.25;5072632;28;20072;-66
2024/03/21 04:07:54;;;;;;;0.40;0.40;;;;;;;2.60;75.20;100004.41;5072473;28;20049;-66
2024/03/21 04:10:22;;;;;;;0.50;0.50;;;;;;;2.56;75.12;100010.16;5072687;28;20040;-66
2024/03/21 04:12:48;;;;;;;2.45;2.25;;;;;;;2.56;75.85;100007.63;5072737;28;20036;-66
2024/03/21 04:15:16;;;;;;;1.80;1.70;;;;;;;2.55;75.37;100005.91;5055929;28;20423;-66
2024/03/21 04:17:43;;;;;;;0.63;0.63;;;;;;;2.49;75.74;99993.13;5072459;28;20036;-66
2024/03/21 04:20:13;;;;;;;2.83;1.35;;;;;;;2.55;76.19;100000.88;5055521;28;20410;-66
2024/03/21 04:22:41;;;;;;;2.47;1.88;;;;;;;2.52;76.28;100000.75;5072421;28;20054;-66
2024/03/21 04:25:09;;;;;;;26.52;2.95;;;;;;;2.52;75.34;100003.28;5055809;28;20052;-66
2024/03/21 04:27:36;;;;;;;1.23;1.15;;;;;;;2.51;76.28;100011.66;5072455;28;20045;-66
2024/03/21 04:30:05;;;;;;;4.07;3.35;;;;;;;2.49;75.85;100005.72;5072176;28;20045;-67
2024/03/21 04:32:31;;;;;;;5.53;4.32;;;;;;;2.54;76.08;100006.69;5072366;28;20045;-66
2024/03/21 04:34:59;;;;;;;1.85;1.73;;;;;;;2.51;76.26;100004.09;5072464;28;20037;-66
2024/03/21 04:37:29;;;;;;;3.35;3.05;;;;;;;2.65;75.83;100015.53;5072448;28;20074;-66
2024/03/21 04:39:58;;;;;;;1.50;1.40;;;;;;;2.70;76.53;100013.16;5055198;28;20044;-66
2024/03/21 04:42:25;;;;;;;0.70;0.68;;;;;;;2.71;76.76;100013.19;5088851;28;20526;-66
2024/03/21 04:44:53;;;;;;;0.50;0.50;;;;;;;2.46;76.10;99970.31;5072611;28;20494;-66
2024/03/21 04:47:21;;;;;;;1.52;1.42;;;;;;;2.77;76.60;100026.81;5072263;28;20037;-67
2024/03/21 04:49:54;;;;;;;1.08;1.05;;;;;;;2.80;76.14;100016.88;5055558;28;20540;-67
2024/03/21 04:52:20;;;;;;;1.08;1.02;;;;;;;2.77;76.60;100011.72;5055627;28;20086;-66
2024/03/21 04:54:50;;;;;;;1.15;1.10;;;;;;;2.81;76.15;100018.59;5058305;28;20036;-66
2024/03/21 04:57:18;;;;;;;2.03;1.80;;;;;;;2.84;76.14;100019.53;5059555;28;20545;-66
2024/03/21 04:59:46;;;;;;;7.78;2.58;;;;;;;2.87;75.94;100017.13;5075966;28;20444;-67
2024/03/21 05:02:13;;;;;;;2.63;2.35;;;;;;;2.88;75.81;100010.44;5058888;28;20495;-66
2024/03/21 05:04:41;;;;;;;4.97;4.47;;;;;;;2.88;75.83;100020.53;5076027;28;20044;-66
2024/03/21 05:07:08;;;;;;;13.60;8.77;;;;;;;2.88;75.74;100020.53;5075664;28;20044;-66
2024/03/21 05:09:36;;;;;;;4.03;3.65;;;;;;;2.81;75.79;100008.50;5075971;28;20036;-66
2024/03/21 05:12:03;;;;;;;3.70;3.40;;;;;;;2.96;75.50;100024.16;5076143;28;20037;-66
2024/03/21 05:14:34;;;;;;;3.33;2.92;;;;;;;2.97;75.82;100023.34;5075451;28;20048;-67
2024/03/21 05:17:01;;;;;;;2.67;2.40;;;;;;;3.03;75.66;100026.06;5075593;28;20056;-66
2024/03/21 05:19:29;;;;;;;2.05;1.63;;;;;;;3.02;76.02;100016.81;5075532;28;20044;-66
2024/03/21 05:21:56;;;;;;;7.47;1.95;;;;;;;3.07;76.05;100027.91;5059025;28;20075;-66
2024/03/21 05:24:23;;;;;;;2.10;2.00;;;;;;;3.08;76.18;100027.09;5075611;28;20098;-66
2024/03/21 05:26:50;;;;;;;2.05;1.85;;;;;;;3.11;76.27;100019.66;5058959;28;20029;-66
2024/03/21 05:29:18;;;;;;;5.15;2.90;;;;;;;3.18;75.97;100021.56;5058814;28;20395;-66
2024/03/21 05:31:46;;;;;;;1.63;1.52;;;;;;;3.27;75.50;100021.88;5075274;28;20036;-66
2024/03/21 05:34:14;;;;;;;2.65;2.45;;;;;;;3.34;75.81;100023.78;5058749;28;20056;-66
2024/03/21 05:36:40;;;;;;;2.67;2.45;;;;;;;3.42;76.21;100022.38;5058847;28;20047;-66
2024/03/21 05:39:08;;;;;;;2.08;1.60;;;;;;;3.51;76.07;100017.63;5075421;28;20040;-66
2024/03/21 05:41:35;;;;;;;2.00;1.52;;;;;;;3.62;75.83;100021.38;5058542;28;20036;-67
2024/03/21 05:44:03;;;;;;;2.08;1.85;;;;;;;3.66;75.77;100010.56;5075297;28;20045;-66
2024/03/21 05:46:29;;;;;;;3.05;2.75;;;;;;;3.81;75.72;100013.59;5075209;28;20072;-67
2024/03/21 05:48:59;;;;;;;3.00;2.78;;;;;;;3.94;76.00;100030.81;5075248;28;20045;-66
2024/03/21 05:51:25;;;;;;;8.20;2.03;;;;;;;4.08;75.89;100023.66;5075558;28;20045;-66
2024/03/21 05:53:53;;;;;;;2.45;2.25;;;;;;;4.21;75.76;100024.88;5075071;28;20055;-66
2024/03/21 05:56:20;;;;;;;3.08;2.78;;;;;;;4.30;75.36;100023.47;5074843;28;20045;-67
2024/03/21 05:58:47;;;;;;;1.58;1.48;;;;;;;4.37;75.52;100016.94;5075034;28;20040;-66
2024/03/21 06:04:04;;;;;;;2.42;2.13;;;;;;;4.54;74.27;100018.28;5074987;28;20051;-66
2024/03/21 06:06:31;;;;;;;2.47;2.30;;;;;;;4.56;74.37;100017.50;5074015;28;20049;-66
2024/03/21 06:08:59;;;;;;;9.18;2.55;;;;;;;4.47;73.95;99999.56;5074622;28;20032;-67
2024/03/21 06:11:25;;;;;;;2.92;2.17;;;;;;;4.66;74.01;100013.56;5074556;28;20066;-67
2024/03/21 06:13:53;;;;;;;1.60;1.50;;;;;;;4.71;73.49;100015.41;5074438;28;20490;-67
2024/03/21 06:16:20;;;;;;;1.02;1.02;;;;;;;4.79;73.26;100010.59;5057649;28;20451;-66
2024/03/21 06:18:47;;;;;;;2.50;2.28;;;;;;;4.84;73.87;100014.09;5074475;28;20049;-67
2024/03/21 06:21:15;;;;;;;1.20;1.10;;;;;;;4.90;73.63;100015.91;5074749;28;20071;-67
2024/03/21 06:23:43;;;;;;;2.00;1.50;;;;;;;4.95;73.29;100022.81;5057627;28;20174;-66
2024/03/21 06:26:10;;;;;;;1.83;1.73;;;;;;;5.04;73.08;100023.06;5074487;28;20064;-67
2024/03/21 06:28:37;;;;;;;3.88;2.97;;;;;;;5.11;73.22;100016.50;5074453;28;20490;-67
2024/03/21 06:31:04;;;;;;;2.92;2.40;;;;;;;5.17;72.66;100016.66;5057757;28;20040;-66
2024/03/21 06:33:32;;;;;;;4.55;2.15;;;;;;;5.19;72.76;100018.41;5074394;28;20040;-66
2024/03/21 06:35:59;;;;;;;1.30;1.20;;;;;;;5.32;72.22;100020.44;5074215;28;20086;-66
2024/03/21 06:38:28;;;;;;;3.25;2.83;;;;;;;5.47;72.56;100024.19;5057950;28;20036;-66
2024/03/21 06:40:55;;;;;;;1.73;1.48;;;;;;;5.61;72.51;100022.84;5074539;28;20044;-66
2024/03/21 06:43:23;;;;;;;0.77;0.77;;;;;;;5.68;71.93;100022.16;5073681;28;20036;-67
2024/03/21 06:45:53;;;;;;;1.35;1.25;;;;;;;5.75;71.44;100021.50;5057475;28;20060;-66
2024/03/21 06:48:22;;;;;;;3.92;1.95;;;;;;;5.81;71.23;100021.63;5073980;28;20049;-66
2024/03/21 06:50:49;;;;;;;1.17;1.08;;;;;;;5.84;71.85;100019.16;5074115;28;20095;-66
2024/03/21 06:53:17;;;;;;;1.85;1.75;;;;;;;5.95;71.39;100027.94;5073780;28;20040;-67
2024/03/21 06:55:51;;;;;;;2.67;2.40;;;;;;;6.00;70.94;100006.06;5057179;28;20487;-66
2024/03/21 06:58:19;;;;;;;2.05;1.95;;;;;;;6.18;71.15;100016.63;5057169;28;20048;-66
2024/03/21 07:00:46;;;;;;;4.55;3.10;;;;;;;6.23;70.55;100007.44;5056866;28;20040;-66
2024/03/21 07:03:15;;;;;;;1.65;1.55;;;;;;;6.25;69.94;100013.41;5073457;28;20127;-66
2024/03/21 07:05:42;;;;;;;1.85;1.23;;;;;;;6.27;69.29;100024.41;5073644;28;20486;-66
2024/03/21 07:08:10;;;;;;;0.60;0.60;;;;;;;6.25;69.30;100021.00;5073701;28;20040;-66
2024/03/21 07:10:36;;;;;;;2.08;1.92;;;;;;;6.27;69.14;100016.81;5080990;28;20044;-66
2024/03/21 07:13:06;;;;;;;2.75;2.55;;;;;;;6.35;69.30;100024.59;5083671;28;20111;-66
2024/03/21 07:15:34;;;;;;;1.33;1.23;;;;;;;6.48;68.84;100022.34;5093720;28;20044;-66
2024/03/21 07:18:01;;;;;;;0.60;0.60;;;;;;;6.63;68.41;100021.81;5076629;28;20086;-66
2024/03/21 07:20:28;;;;;;;22.27;3.15;;;;;;;6.73;67.87;100026.25;5076727;28;20047;-66
2024/03/21 07:22:56;;;;;;;1.55;1.45;;;;;;;6.69;66.79;100022.78;5093350;28;20460;-66
2024/03/21 07:25:22;;;;;;;1.67;1.58;;;;;;;6.74;66.39;100020.34;5093236;28;20044;-65
2024/03/21 07:27:50;;;;;;;1.40;1.30;;;;;;;6.67;66.22;99994.00;5093400;28;20089;-66
2024/03/21 07:30:19;;;;;;;1.23;0.90;;;;;;;6.89;66.19;100014.69;5093583;28;20113;-66
2024/03/21 07:32:51;;;;;;;1.40;1.30;;;;;;;6.98;66.21;100010.66;5093247;28;20032;-66
2024/03/21 07:35:19;;;;;;;3.33;2.20;;;;;;;7.05;65.77;100009.97;5093391;28;20112;-66
2024/03/21 07:37:47;;;;;;;2.40;2.08;;;;;;;7.22;64.80;100007.72;5092790;28;20044;-66
2024/03/21 07:40:14;;;;;;;2.10;1.95;;;;;;;7.28;64.00;99988.38;5090634;28;20038;-66
2024/03/21 07:42:42;;;;;;;2.83;2.10;;;;;;;7.61;64.88;100005.84;5093122;28;20036;-66
2024/03/21 07:45:10;;;;;;;2.15;1.52;;;;;;;7.86;64.38;100007.97;5076230;28;20051;-66
2024/03/21 07:47:40;;;;;;;1.43;1.33;;;;;;;8.07;64.00;100005.72;5093156;28;20446;-66
2024/03/21 07:50:07;;;;;;;;;;;;;;;8.26;63.12;100005.97;5093596;28;20052;-66
2024/03/21 07:52:35;;;;;;;1.63;1.52;;;;;;;8.43;62.74;100002.88;5093756;28;19927;-65
2024/03/21 07:55:02;;;;;;;2.20;2.03;;;;;;;8.59;62.99;100001.38;5092855;28;20117;-66
2024/03/21 07:57:29;;;;;;;2.90;0.85;;;;;;;8.65;62.04;99993.81;5092827;28;20040;-66
2024/03/21 07:59:56;;;;;;;5.20;2.35;;;;;;;8.77;61.42;99999.03;5093075;28;20083;-66
2024/03/21 08:02:24;;;;;;;0.75;0.75;;;;;;;8.86;61.40;99999.16;5075933;28;20036;-66
2024/03/21 08:04:52;;;;;;;0.93;0.82;;;;;;;8.95;61.12;100003.50;5092931;28;20086;-66
2024/03/21 08:07:20;;;;;;;2.70;1.70;;;;;;;9.02;60.47;99993.38;5092872;28;20059;-66
2024/03/21 08:09:46;;;;;;;1.35;1.10;;;;;;;9.05;59.57;99995.94;5092980;28;20113;-65
2024/03/21 08:12:14;;;;;;;1.65;1.55;;;;;;;9.03;60.05;99976.41;5092790;28;20044;-66
2024/03/21 08:14:41;;;;;;;2.85;2.60;;;;;;;9.33;59.24;99999.66;5075926;28;20044;-66
2024/03/21 08:17:09;;;;;;;1.83;1.73;;;;;;;9.43;59.79;99992.06;5092800;28;20048;-66
2024/03/21 08:19:35;;;;;;;3.97;2.63;;;;;;;9.56;59.71;99990.50;5092762;28;20440;-66
2024/03/21 08:22:05;;;;;;;1.25;1.15;;;;;;;9.75;59.52;99989.78;5092578;28;20127;-67
2024/03/21 08:24:32;;;;;;;4.93;2.35;;;;;;;9.96;60.03;99982.28;5092635;28;20075;-67
2024/03/21 08:27:02;;;;;;;3.05;1.33;;;;;;;10.20;59.27;99986.72;5075845;28;20048;-67
2024/03/21 08:29:29;;;;;;;3.92;2.67;;;;;;;10.44;59.10;99986.84;5091688;28;20405;-67
2024/03/21 08:31:58;;;;;;;2.58;2.35;;;;;;;10.63;58.09;99991.19;5092610;28;20093;-67
2024/03/21 08:34:25;;;;;;;1.85;1.75;;;;;;;10.71;56.77;99986.97;5092543;28;20130;-67
2024/03/21 08:36:54;;;;;;;0.75;0.75;;;;;;;10.66;56.77;99993.75;5092337;28;20441;-67
2024/03/21 08:39:22;;;;;;;1.90;1.80;;;;;;;10.83;56.45;100001.47;5092567;28;20051;-67
2024/03/21 08:41:50;;;;;;;1.40;1.30;;;;;;;10.96;56.13;99987.03;5075431;28;20460;-67
2024/03/21 08:44:16;;;;;;;1.60;1.50;;;;;;;11.19;55.39;99995.59;5092360;28;20095;-67
2024/03/21 08:46:44;;;;;;;3.25;1.55;;;;;;;11.36;55.23;99989.66;5092037;28;20494;-67
2024/03/21 08:49:11;;;;;;;3.03;1.92;;;;;;;11.49;54.88;99988.00;5075318;28;20047;-67
2024/03/21 08:51:39;;;;;;;2.13;1.92;;;;;;;11.28;53.99;99939.41;5092574;28;20090;-67
2024/03/21 08:54:06;;;;;;;0.93;0.93;;;;;;;11.61;53.61;99985.44;5092612;28;20075;-67
2024/03/21 08:56:35;;;;;;;2.28;1.25;;;;;;;11.84;53.18;99983.75;5092044;28;20523;-67
2024/03/21 08:59:03;;;;;;;1.90;1.65;;;;;;;12.09;52.96;99990.50;5075596;28;20032;-68
2024/03/21 09:01:31;;;;;;;3.92;2.42;;;;;;;12.14;52.05;99987.09;5092355;28;20051;-67
2024/03/21 09:03:57;;;;;;;2.17;1.95;;;;;;;12.13;51.58;99975.16;5091911;28;20059;-67
2024/03/21 09:06:25;;;;;;;3.67;2.97;;;;;;;12.14;51.24;99970.03;5091908;28;20028;-68
2024/03/21 09:08:52;;;;;;;1.40;1.13;;;;;;;12.36;51.06;99968.25;5091929;28;20444;-67
2024/03/21 09:11:20;;;;;;;1.80;1.65;;;;;;;12.53;50.94;99969.06;5075416;28;20039;-67
2024/03/21 09:13:48;;;;;;;5.20;2.65;;;;;;;12.66;49.77;99970.72;5092172;28;20048;-67
2024/03/21 09:16:16;;;;;;;2.90;2.05;;;;;;;12.76;48.54;99974.94;5092182;28;20036;-67
2024/03/21 09:18:44;;;;;;;1.52;1.40;;;;;;;12.95;48.52;99966.31;5091937;28;20506;-67
2024/03/21 09:21:12;;;;;;;2.20;2.05;;;;;;;13.23;48.98;99962.72;5092153;28;20040;-67
2024/03/21 09:23:39;;;;;;;1.52;1.42;;;;;;;13.27;47.14;99964.41;5075046;28;20436;-67
2024/03/21 09:26:07;;;;;;;7.72;3.90;;;;;;;13.23;46.95;99952.47;5075211;28;20051;-67
2024/03/21 09:28:34;;;;;;;4.68;3.00;;;;;;;13.46;47.58;99951.47;5091907;28;20494;-67
2024/03/21 09:31:04;;;;;;;3.97;2.40;;;;;;;13.67;46.32;99948.72;5092055;28;20071;-67
2024/03/21 09:33:31;;;;;;;4.18;3.45;;;;;;;13.78;46.51;99952.88;5091977;28;20048;-67
2024/03/21 09:35:59;;;;;;;2.60;2.05;;;;;;;13.90;45.58;99946.75;5091959;28;20047;-67
2024/03/21 09:38:26;;;;;;;2.00;1.88;;;;;;;13.98;45.17;99950.13;5092053;28;20052;-67
2024/03/21 09:40:56;;;;;;;5.10;3.22;;;;;;;14.02;43.99;99951.78;5094879;28;20044;-67
2024/03/21 09:43:23;;;;;;;5.68;3.25;;;;;;;14.01;44.28;99955.22;5095449;28;20058;-67
2024/03/21 09:45:53;;;;;;;2.97;2.67;;;;;;;14.08;44.77;99947.41;5095579;28;20044;-67
2024/03/21 09:48:21;;;;;;;4.22;2.03;;;;;;;14.23;44.55;99945.56;5078612;28;20036;-67
2024/03/21 09:50:49;;;;;;;5.40;2.63;;;;;;;14.43;44.77;99944.50;5095320;28;20036;-67
2024/03/21 09:53:16;;;;;;;5.13;2.95;;;;;;;14.38;44.90;99930.84;5095554;28;20036;-67
2024/03/21 09:55:44;;;;;;;1.70;1.50;;;;;;;14.52;45.63;99920.41;5095238;28;20063;-67
2024/03/21 09:58:12;;;;;;;2.60;2.40;;;;;;;14.70;45.46;99921.03;5095944;28;20138;-67
2024/03/21 10:00:41;;;;;;;4.82;1.65;;;;;;;14.93;44.96;99932.69;5095541;28;20047;-67
2024/03/21 10:03:13;;;;;;;5.93;2.33;;;;;;;14.90;43.92;99930.19;5095084;28;20054;-67
2024/03/21 10:05:44;;;;;;;1.80;1.63;;;;;;;14.87;43.73;99925.09;5078452;28;20504;-66
2024/03/21 10:08:12;;;;;;;2.63;2.05;;;;;;;14.87;43.43;99925.09;5094847;28;20040;-67
2024/03/21 10:10:39;;;;;;;4.25;2.50;;;;;;;14.73;43.26;99918.41;5095105;28;20090;-66
2024/03/21 10:13:07;;;;;;;3.47;2.40;;;;;;;14.98;44.21;99918.06;5095118;28;20074;-67
2024/03/21 10:15:36;;;;;;;2.05;1.58;;;;;;;15.20;44.58;99924.59;5094954;28;20028;-67
2024/03/21 10:18:05;;;;;;;22.90;1.75;;;;;;;15.46;45.00;99922.47;5094899;28;20036;-67
2024/03/21 10:20:33;;;;;;;9.70;3.47;;;;;;;15.63;45.60;99914.47;5078003;28;20036;-67
2024/03/21 10:23:02;;;;;;;4.35;2.88;;;;;;;15.67;44.55;99918.69;5095033;28;20607;-67
2024/03/21 10:25:29;;;;;;;3.95;2.63;;;;;;;15.66;44.65;99909.28;5094678;28;20528;-67
2024/03/21 10:27:57;;;;;;;3.75;2.92;;;;;;;15.48;44.51;99915.56;5094866;28;20035;-66
2024/03/21 10:30:24;;;;;;;8.65;2.85;;;;;;;15.38;44.29;99914.00;5094411;28;20048;-67
2024/03/21 10:32:51;;;;;;;4.63;3.38;;;;;;;15.45;44.39;99913.06;5094834;28;20511;-67
2024/03/21 10:35:21;;;;;;;4.30;2.45;;;;;;;15.55;44.43;99908.63;5060680;28;20417;-66
2024/03/21 10:37:49;;;;;;;4.15;2.72;;;;;;;15.46;44.73;99891.59;5077389;28;20040;-68
2024/03/21 10:40:17;;;;;;;3.50;2.90;;;;;;;15.42;44.59;99905.38;5094586;28;20044;-67
2024/03/21 10:42:52;;;;;;;3.80;2.72;;;;;;;15.31;44.76;99900.38;5094355;28;20122;-67
2024/03/21 10:45:20;;;;;;;1.27;1.17;;;;;;;15.37;45.22;99900.31;5094308;28;20135;-67
2024/03/21 10:47:50;;;;;;;5.30;4.60;;;;;;;15.43;44.77;99895.03;5077554;28;20048;-67
2024/03/21 10:50:18;;;;;;;;;;;;;;;15.50;43.82;99895.81;5077874;28;20042;-66
2024/03/21 10:52:53;;;;;;;3.40;2.22;;;;;;;15.77;43.70;99897.91;5093172;28;19920;-67
2024/03/21 10:55:21;;;;;;;1.63;1.38;;;;;;;15.92;43.42;99887.34;5091419;28;20044;-67
2024/03/21 10:57:54;;;;;;;4.50;3.85;;;;;;;16.10;43.08;99897.25;5093577;28;20055;-67
2024/03/21 11:00:23;;;;;;;2.85;2.45;;;;;;;16.19;42.85;99890.25;5056725;28;20068;-67
2024/03/21 11:02:54;;;;;;;5.78;3.15;;;;;;;16.37;43.14;99889.84;5093793;28;20051;-67
2024/03/21 11:05:24;;;;;;;5.80;3.08;;;;;;;16.59;42.28;99891.13;5094044;28;20051;-66
2024/03/21 11:07:54;;;;;;;3.78;2.63;;;;;;;16.82;42.58;99883.72;5093650;28;20048;-67
2024/03/21 11:10:22;;;;;;;1.60;1.33;;;;;;;16.68;41.46;99880.63;5093938;28;20052;-67
2024/03/21 11:12:52;;;;;;;4.30;3.50;;;;;;;16.71;40.82;99877.97;5093370;28;20038;-67
2024/03/21 11:15:18;;;;;;;1.50;1.40;;;;;;;16.66;40.24;99872.06;5076792;28;20494;-67
2024/03/21 11:17:46;;;;;;;3.42;2.78;;;;;;;16.68;39.75;99870.31;5093576;28;20040;-66
2024/03/21 11:20:14;;;;;;;3.40;2.10;;;;;;;16.76;41.11;99845.22;5093777;28;20055;-66
2024/03/21 11:22:44;;;;;;;2.38;1.63;;;;;;;17.19;43.22;99858.78;5093601;28;20051;-67
2024/03/21 11:25:11;;;;;;;2.00;1.75;;;;;;;17.15;41.44;99852.00;5093690;28;20090;-67
2024/03/21 11:27:42;;;;;;;2.45;1.83;;;;;;;17.15;41.02;99857.16;5093018;28;20075;-67
2024/03/21 11:30:09;;;;;;;2.03;1.48;;;;;;;17.17;41.53;99851.97;5073376;28;20044;-67
2024/03/21 11:32:38;;;;;;;2.75;2.47;;;;;;;17.18;42.08;99846.75;5056786;28;20056;-67
2024/03/21 11:35:05;;;;;;;2.65;1.65;;;;;;;17.06;41.81;99847.06;5056460;28;20037;-67
2024/03/21 11:37:35;;;;;;;3.00;2.10;;;;;;;17.13;41.98;99848.59;5056449;28;20052;-67
2024/03/21 11:40:03;;;;;;;1.65;1.38;;;;;;;17.25;41.85;99843.13;5039799;28;20097;-67
2024/03/21 11:42:31;;;;;;;3.33;2.80;;;;;;;17.33;42.76;99841.22;5072758;28;20444;-66